createdAt,value
2023-03-05T00:00:18.548Z,1.7
2023-03-05T00:00:48.551Z,1.72
2023-03-05T00:01:18.557Z,1.73
2023-03-05T00:01:48.549Z,1.71
2023-03-05T00:02:18.633Z,1.69
2023-03-05T00:02:48.666Z,1.7
2023-03-05T00:03:18.570Z,1.71
2023-03-05T00:03:48.620Z,1.69
2023-03-05T00:04:18.544Z,1.71
2023-03-05T00:04:48.552Z,1.7
2023-03-05T00:05:18.546Z,1.68
2023-03-05T00:05:48.561Z,1.63
2023-03-05T00:06:18.547Z,1.58
2023-03-05T00:06:48.543Z,1.6
2023-03-05T00:07:18.552Z,1.62
2023-03-05T00:07:48.542Z,1.62
2023-03-05T00:08:18.546Z,1.61
2023-03-05T00:08:48.549Z,1.63
2023-03-05T00:09:18.544Z,1.63
2023-03-05T00:09:48.543Z,1.61
2023-03-05T00:10:18.556Z,1.59
2023-03-05T00:10:48.543Z,1.62
2023-03-05T00:11:18.542Z,1.57
2023-03-05T00:11:48.549Z,1.5
2023-03-05T00:12:18.542Z,1.41
2023-03-05T00:12:48.543Z,1.33
2023-03-05T00:13:18.546Z,1.23
2023-03-05T00:13:48.541Z,1.19
2023-03-05T00:14:18.542Z,1.18
2023-03-05T00:14:48.543Z,1.19
2023-03-05T00:15:18.546Z,1.16
2023-03-05T00:15:48.546Z,1.14
2023-03-05T00:16:18.574Z,1.17
2023-03-05T00:16:48.552Z,1.22
2023-03-05T00:17:18.550Z,1.27
2023-03-05T00:17:48.550Z,1.32
2023-03-05T00:18:18.540Z,1.39
2023-03-05T00:18:48.551Z,1.44
2023-03-05T00:19:18.561Z,1.45
2023-03-05T00:19:48.547Z,1.48
2023-03-05T00:20:18.543Z,1.53
2023-03-05T00:20:48.543Z,1.53
2023-03-05T00:21:18.540Z,1.51
2023-03-05T00:21:48.542Z,1.52
2023-03-05T00:22:18.548Z,1.53
2023-03-05T00:22:48.549Z,1.56
2023-03-05T00:23:18.545Z,1.54
2023-03-05T00:23:48.546Z,1.53
2023-03-05T00:24:18.598Z,1.54
2023-03-05T00:24:48.545Z,1.55
2023-03-05T00:25:18.539Z,1.55
2023-03-05T00:25:48.540Z,1.54
2023-03-05T00:26:18.545Z,1.53
2023-03-05T00:26:48.546Z,1.51
2023-03-05T00:27:18.540Z,1.54
2023-03-05T00:27:48.549Z,1.54
2023-03-05T00:28:18.546Z,1.56
2023-03-05T00:28:48.547Z,1.54
2023-03-05T00:29:18.578Z,1.51
2023-03-05T00:29:48.551Z,1.5
2023-03-05T00:30:18.546Z,1.48
2023-03-05T00:30:48.597Z,1.46
2023-03-05T00:31:18.588Z,1.44
2023-03-05T00:31:48.554Z,1.44
2023-03-05T00:32:18.606Z,1.39
2023-03-05T00:32:48.547Z,1.36
2023-03-05T00:33:18.543Z,1.34
2023-03-05T00:33:48.543Z,1.35
2023-03-05T00:34:18.555Z,1.35
2023-03-05T00:34:48.551Z,1.4
2023-03-05T00:35:18.555Z,1.45
2023-03-05T00:35:48.629Z,1.48
2023-03-05T00:36:18.545Z,1.52
2023-03-05T00:36:48.559Z,1.54
2023-03-05T00:37:18.553Z,1.55
2023-03-05T00:37:48.551Z,1.6
2023-03-05T00:38:18.547Z,1.55
2023-03-05T00:38:48.547Z,1.46
2023-03-05T00:39:18.547Z,1.44
2023-03-05T00:39:48.549Z,1.43
2023-03-05T00:40:18.672Z,1.43
2023-03-05T00:40:48.546Z,1.41
2023-03-05T00:41:18.545Z,1.4
2023-03-05T00:41:48.546Z,1.41
2023-03-05T00:42:18.546Z,1.43
2023-03-05T00:42:48.550Z,1.38
2023-03-05T00:43:18.547Z,1.35
2023-03-05T00:43:48.553Z,1.29
2023-03-05T00:44:18.551Z,1.22
2023-03-05T00:44:48.545Z,1.19
2023-03-05T00:45:18.544Z,1.11
2023-03-05T00:45:48.546Z,1.03
2023-03-05T00:46:18.579Z,0.98
2023-03-05T00:46:48.623Z,0.95
2023-03-05T00:47:18.593Z,0.95
2023-03-05T00:47:48.551Z,0.99
2023-03-05T00:48:18.545Z,1
2023-03-05T00:48:48.545Z,1.04
2023-03-05T00:49:18.562Z,1.04
2023-03-05T00:49:48.554Z,1.09
2023-03-05T00:50:18.549Z,1.14
2023-03-05T00:50:48.547Z,1.16
2023-03-05T00:51:18.547Z,1.18
2023-03-05T00:51:48.557Z,1.18
2023-03-05T00:52:18.551Z,1.2
2023-03-05T00:52:48.553Z,1.22
2023-03-05T00:53:18.548Z,1.25
2023-03-05T00:53:48.550Z,1.24
2023-03-05T00:54:18.549Z,1.25
2023-03-05T00:54:48.546Z,1.25
2023-03-05T00:55:18.546Z,1.26
2023-03-05T00:55:48.546Z,1.26
2023-03-05T00:56:18.551Z,1.24
2023-03-05T00:56:48.544Z,1.25
2023-03-05T00:57:18.553Z,1.29
2023-03-05T00:57:48.545Z,1.31
2023-03-05T00:58:18.551Z,1.32
2023-03-05T00:58:48.549Z,1.35
2023-03-05T00:59:18.555Z,1.35
2023-03-05T00:59:48.556Z,1.36
2023-03-05T01:00:18.552Z,1.36
2023-03-05T01:00:48.545Z,1.35
2023-03-05T01:01:18.580Z,1.35
2023-03-05T01:01:48.599Z,1.37
2023-03-05T01:02:18.559Z,1.34
2023-03-05T01:02:48.543Z,1.32
2023-03-05T01:03:18.545Z,1.31
2023-03-05T01:03:48.539Z,1.33
2023-03-05T01:04:18.560Z,1.31
2023-03-05T01:04:48.596Z,1.34
2023-03-05T01:05:18.618Z,1.35
2023-03-05T01:05:48.547Z,1.38
2023-03-05T01:06:18.565Z,1.39
2023-03-05T01:06:48.542Z,1.41
2023-03-05T01:07:18.534Z,1.4
2023-03-05T01:07:48.532Z,1.38
2023-03-05T01:08:18.534Z,1.38
2023-03-05T01:08:48.534Z,1.39
2023-03-05T01:09:18.532Z,1.37
2023-03-05T01:09:48.530Z,1.34
2023-03-05T01:10:18.532Z,1.34
2023-03-05T01:10:48.531Z,1.31
2023-03-05T01:11:18.532Z,1.31
2023-03-05T01:11:48.541Z,1.3
2023-03-05T01:12:18.546Z,1.3
2023-03-05T01:12:48.530Z,1.31
2023-03-05T01:13:18.531Z,1.36
2023-03-05T01:13:48.526Z,1.39
2023-03-05T01:14:18.537Z,1.42
2023-03-05T01:14:48.528Z,1.45
2023-03-05T01:15:18.531Z,1.47
2023-03-05T01:15:48.560Z,1.47
2023-03-05T01:16:18.663Z,1.41
2023-03-05T01:16:48.531Z,1.35
2023-03-05T01:17:18.534Z,1.33
2023-03-05T01:17:48.537Z,1.32
2023-03-05T01:18:18.525Z,1.36
2023-03-05T01:18:48.550Z,1.38
2023-03-05T01:19:18.535Z,1.36
2023-03-05T01:19:48.533Z,1.36
2023-03-05T01:20:18.527Z,1.38
2023-03-05T01:20:48.526Z,1.39
2023-03-05T01:21:18.530Z,1.36
2023-03-05T01:21:48.529Z,1.31
2023-03-05T01:22:18.526Z,1.29
2023-03-05T01:22:48.523Z,1.29
2023-03-05T01:23:18.529Z,1.28
2023-03-05T01:23:48.527Z,1.27
2023-03-05T01:24:18.521Z,1.29
2023-03-05T01:24:48.525Z,1.3
2023-03-05T01:25:18.538Z,1.26
2023-03-05T01:25:48.529Z,1.17
2023-03-05T01:26:18.532Z,1.08
2023-03-05T01:26:48.533Z,1.11
2023-03-05T01:27:18.525Z,1.11
2023-03-05T01:27:48.521Z,1.05
2023-03-05T01:28:18.524Z,0.99
2023-03-05T01:28:48.530Z,0.92
2023-03-05T01:29:18.523Z,0.89
2023-03-05T01:29:48.521Z,0.87
2023-03-05T01:30:18.522Z,0.86
2023-03-05T01:30:48.521Z,0.87
2023-03-05T01:31:18.545Z,0.9
2023-03-05T01:31:48.607Z,0.92
2023-03-05T01:32:18.549Z,0.9
2023-03-05T01:32:48.527Z,0.89
2023-03-05T01:33:18.528Z,0.88
2023-03-05T01:33:48.530Z,0.89
2023-03-05T01:34:18.520Z,0.93
2023-03-05T01:34:48.520Z,0.99
2023-03-05T01:35:18.566Z,1.03
2023-03-05T01:35:48.563Z,1.02
2023-03-05T01:36:18.525Z,1
2023-03-05T01:36:48.522Z,0.96
2023-03-05T01:37:18.522Z,0.95
2023-03-05T01:37:48.539Z,0.95
2023-03-05T01:38:18.529Z,0.93
2023-03-05T01:38:48.522Z,0.92
2023-03-05T01:39:18.520Z,0.89
2023-03-05T01:39:48.530Z,0.89
2023-03-05T01:40:18.524Z,0.9
2023-03-05T01:40:48.524Z,0.9
2023-03-05T01:41:18.523Z,0.94
2023-03-05T01:41:48.525Z,0.95
2023-03-05T01:42:18.524Z,0.94
2023-03-05T01:42:48.522Z,0.93
2023-03-05T01:43:18.525Z,0.93
2023-03-05T01:43:48.539Z,0.97
2023-03-05T01:44:18.524Z,0.97
2023-03-05T01:44:48.521Z,0.97
2023-03-05T01:45:18.538Z,0.96
2023-03-05T01:45:48.553Z,0.95
2023-03-05T01:46:18.526Z,0.93
2023-03-05T01:46:48.532Z,0.9
2023-03-05T01:47:18.533Z,0.87
2023-03-05T01:47:48.522Z,0.85
2023-03-05T01:48:18.525Z,0.86
2023-03-05T01:48:48.526Z,0.86
2023-03-05T01:49:18.533Z,0.86
2023-03-05T01:49:48.525Z,0.87
2023-03-05T01:50:18.535Z,0.95
2023-03-05T01:50:48.527Z,1.01
2023-03-05T01:51:18.522Z,1.04
2023-03-05T01:51:48.526Z,1.13
2023-03-05T01:52:18.524Z,1.16
2023-03-05T01:52:48.525Z,1.22
2023-03-05T01:53:18.534Z,1.27
2023-03-05T01:53:48.524Z,1.25
2023-03-05T01:54:18.528Z,1.26
2023-03-05T01:54:48.522Z,1.29
2023-03-05T01:55:18.538Z,1.29
2023-03-05T01:55:48.533Z,1.27
2023-03-05T01:56:18.537Z,1.24
2023-03-05T01:56:48.524Z,1.22
2023-03-05T01:57:18.526Z,1.19
2023-03-05T01:57:48.538Z,1.16
2023-03-05T01:58:18.524Z,1.16
2023-03-05T01:58:48.530Z,1.2
2023-03-05T01:59:18.536Z,1.21
2023-03-05T01:59:48.530Z,1.19
2023-03-05T02:00:18.523Z,1.14
2023-03-05T02:00:48.585Z,1.13
2023-03-05T02:01:18.561Z,1.11
2023-03-05T02:01:48.520Z,1.15
2023-03-05T02:02:18.525Z,1.19
2023-03-05T02:02:48.522Z,1.25
2023-03-05T02:03:18.534Z,1.31
2023-03-05T02:03:48.603Z,1.29
2023-03-05T02:04:18.525Z,1.34
2023-03-05T02:04:48.529Z,1.35
2023-03-05T02:05:18.532Z,1.36
2023-03-05T02:05:48.520Z,1.37
2023-03-05T02:06:18.519Z,1.41
2023-03-05T02:06:48.549Z,1.44
2023-03-05T02:07:18.548Z,1.41
2023-03-05T02:07:48.539Z,1.41
2023-03-05T02:08:18.530Z,1.43
2023-03-05T02:08:48.519Z,1.45
2023-03-05T02:09:18.520Z,1.46
2023-03-05T02:09:48.534Z,1.49
2023-03-05T02:10:18.523Z,1.52
2023-03-05T02:10:48.524Z,1.56
2023-03-05T02:11:18.524Z,1.59
2023-03-05T02:11:48.521Z,1.54
2023-03-05T02:12:18.526Z,1.49
2023-03-05T02:12:48.522Z,1.47
2023-03-05T02:13:18.522Z,1.47
2023-03-05T02:13:48.526Z,1.42
2023-03-05T02:14:18.529Z,1.42
2023-03-05T02:14:48.525Z,1.4
2023-03-05T02:15:18.527Z,1.41
2023-03-05T02:15:48.522Z,1.41
2023-03-05T02:16:18.600Z,1.36
2023-03-05T02:16:48.575Z,1.32
2023-03-05T02:17:18.523Z,1.3
2023-03-05T02:17:48.526Z,1.3
2023-03-05T02:18:18.525Z,1.32
2023-03-05T02:18:48.530Z,1.35
2023-03-05T02:19:18.533Z,1.39
2023-03-05T02:19:48.543Z,1.41
2023-03-05T02:20:18.538Z,1.45
2023-03-05T02:20:48.527Z,1.46
2023-03-05T02:21:18.618Z,1.4
2023-03-05T02:21:48.531Z,1.36
2023-03-05T02:22:18.530Z,1.37
2023-03-05T02:22:48.527Z,1.36
2023-03-05T02:23:18.538Z,1.35
2023-03-05T02:23:48.528Z,1.34
2023-03-05T02:24:18.525Z,1.33
2023-03-05T02:24:48.536Z,1.32
2023-03-05T02:25:18.546Z,1.3
2023-03-05T02:25:48.524Z,1.27
2023-03-05T02:26:18.615Z,1.26
2023-03-05T02:26:48.526Z,1.25
2023-03-05T02:27:18.525Z,1.27
2023-03-05T02:27:48.527Z,1.27
2023-03-05T02:28:18.529Z,1.28
2023-03-05T02:28:48.525Z,1.27
2023-03-05T02:29:18.552Z,1.24
2023-03-05T02:29:48.536Z,1.22
2023-03-05T02:30:18.530Z,1.22
2023-03-05T02:30:48.527Z,1.25
2023-03-05T02:31:18.575Z,1.29
2023-03-05T02:31:48.596Z,1.36
2023-03-05T02:32:18.588Z,1.38
2023-03-05T02:32:48.609Z,1.42
2023-03-05T02:33:18.527Z,1.46
2023-03-05T02:33:48.539Z,1.41
2023-03-05T02:34:18.537Z,1.36
2023-03-05T02:34:48.549Z,1.33
2023-03-05T02:35:18.668Z,1.32
2023-03-05T02:35:48.582Z,1.33
2023-03-05T02:36:18.532Z,1.3
2023-03-05T02:36:48.526Z,1.31
2023-03-05T02:37:18.530Z,1.32
2023-03-05T02:37:48.531Z,1.32
2023-03-05T02:38:18.529Z,1.33
2023-03-05T02:38:48.525Z,1.3
2023-03-05T02:39:18.536Z,1.3
2023-03-05T02:39:48.533Z,1.3
2023-03-05T02:40:18.532Z,1.31
2023-03-05T02:40:48.532Z,1.31
2023-03-05T02:41:18.533Z,1.31
2023-03-05T02:41:48.525Z,1.33
2023-03-05T02:42:18.557Z,1.27
2023-03-05T02:42:48.529Z,1.27
2023-03-05T02:43:18.528Z,1.27
2023-03-05T02:43:48.534Z,1.26
2023-03-05T02:44:18.526Z,1.29
2023-03-05T02:44:48.543Z,1.34
2023-03-05T02:45:18.546Z,1.35
2023-03-05T02:45:48.611Z,1.35
2023-03-05T02:46:18.531Z,1.35
2023-03-05T02:46:48.528Z,1.37
2023-03-05T02:47:18.528Z,1.33
2023-03-05T02:47:48.534Z,1.3
2023-03-05T02:48:18.535Z,1.3
2023-03-05T02:48:48.530Z,1.33
2023-03-05T02:49:18.536Z,1.34
2023-03-05T02:49:48.535Z,1.36
2023-03-05T02:50:18.527Z,1.35
2023-03-05T02:50:48.533Z,1.36
2023-03-05T02:51:18.535Z,1.36
2023-03-05T02:51:48.537Z,1.4
2023-03-05T02:52:18.538Z,1.42
2023-03-05T02:52:48.537Z,1.45
2023-03-05T02:53:18.533Z,1.48
2023-03-05T02:53:48.535Z,1.52
2023-03-05T02:54:18.529Z,1.55
2023-03-05T02:54:48.543Z,1.54
2023-03-05T02:55:18.535Z,1.53
2023-03-05T02:55:48.538Z,1.51
2023-03-05T02:56:18.528Z,1.48
2023-03-05T02:56:48.529Z,1.5
2023-03-05T02:57:18.529Z,1.49
2023-03-05T02:57:48.530Z,1.47
2023-03-05T02:58:18.528Z,1.44
2023-03-05T02:58:48.529Z,1.41
2023-03-05T02:59:18.532Z,1.36
2023-03-05T02:59:48.559Z,1.34
2023-03-05T03:00:18.531Z,1.32
2023-03-05T03:00:48.530Z,1.35
2023-03-05T03:01:18.607Z,1.36
2023-03-05T03:01:48.530Z,1.38
2023-03-05T03:02:18.537Z,1.38
2023-03-05T03:02:48.590Z,1.36
2023-03-05T03:03:18.583Z,1.37
2023-03-05T03:03:48.542Z,1.42
2023-03-05T03:04:18.530Z,1.43
2023-03-05T03:04:48.531Z,1.44
2023-03-05T03:05:18.543Z,1.43
2023-03-05T03:05:48.530Z,1.46
2023-03-05T03:06:18.532Z,1.51
2023-03-05T03:06:48.536Z,1.55
2023-03-05T03:07:18.533Z,1.56
2023-03-05T03:07:48.531Z,1.58
2023-03-05T03:08:18.532Z,1.56
2023-03-05T03:08:48.531Z,1.54
2023-03-05T03:09:18.531Z,1.57
2023-03-05T03:09:48.541Z,1.58
2023-03-05T03:10:18.546Z,1.58
2023-03-05T03:10:48.529Z,1.53
2023-03-05T03:11:18.534Z,1.51
2023-03-05T03:11:48.567Z,1.5
2023-03-05T03:12:18.540Z,1.46
2023-03-05T03:12:48.540Z,1.37
2023-03-05T03:13:18.533Z,1.34
2023-03-05T03:13:48.534Z,1.3
2023-03-05T03:14:18.532Z,1.34
2023-03-05T03:14:48.539Z,1.3
2023-03-05T03:15:18.536Z,1.29
2023-03-05T03:15:48.536Z,1.3
2023-03-05T03:16:18.651Z,1.31
2023-03-05T03:16:48.625Z,1.3
2023-03-05T03:17:18.538Z,1.32
2023-03-05T03:17:48.535Z,1.33
2023-03-05T03:18:18.571Z,1.35
2023-03-05T03:18:48.535Z,1.38
2023-03-05T03:19:18.535Z,1.37
2023-03-05T03:19:48.529Z,1.33
2023-03-05T03:20:18.530Z,1.32
2023-03-05T03:20:48.531Z,1.34
2023-03-05T03:21:18.534Z,1.31
2023-03-05T03:21:48.534Z,1.29
2023-03-05T03:22:18.539Z,1.29
2023-03-05T03:22:48.533Z,1.34
2023-03-05T03:23:18.539Z,1.37
2023-03-05T03:23:48.534Z,1.37
2023-03-05T03:24:18.532Z,1.38
2023-03-05T03:24:48.541Z,1.36
2023-03-05T03:25:18.532Z,1.3
2023-03-05T03:25:48.533Z,1.3
2023-03-05T03:26:18.532Z,1.32
2023-03-05T03:26:48.534Z,1.29
2023-03-05T03:27:18.536Z,1.26
2023-03-05T03:27:48.539Z,1.3
2023-03-05T03:28:18.555Z,1.35
2023-03-05T03:28:48.537Z,1.34
2023-03-05T03:29:18.544Z,1.34
2023-03-05T03:29:48.545Z,1.32
2023-03-05T03:30:18.537Z,1.32
2023-03-05T03:30:48.555Z,1.31
2023-03-05T03:31:18.604Z,1.3
2023-03-05T03:31:48.539Z,1.24
2023-03-05T03:32:18.586Z,1.22
2023-03-05T03:32:48.533Z,1.22
2023-03-05T03:33:18.534Z,1.24
2023-03-05T03:33:48.544Z,1.27
2023-03-05T03:34:18.544Z,1.29
2023-03-05T03:34:48.544Z,1.28
2023-03-05T03:35:18.553Z,1.28
2023-03-05T03:35:48.614Z,1.26
2023-03-05T03:36:18.535Z,1.26
2023-03-05T03:36:48.540Z,1.24
2023-03-05T03:37:18.535Z,1.28
2023-03-05T03:37:48.538Z,1.26
2023-03-05T03:38:18.544Z,1.28
2023-03-05T03:38:48.543Z,1.29
2023-03-05T03:39:18.539Z,1.32
2023-03-05T03:39:48.540Z,1.34
2023-03-05T03:40:18.538Z,1.36
2023-03-05T03:40:48.542Z,1.35
2023-03-05T03:41:18.544Z,1.32
2023-03-05T03:41:48.541Z,1.34
2023-03-05T03:42:18.539Z,1.37
2023-03-05T03:42:48.539Z,1.34
2023-03-05T03:43:18.537Z,1.34
2023-03-05T03:43:48.557Z,1.34
2023-03-05T03:44:18.553Z,1.28
2023-03-05T03:44:48.548Z,1.25
2023-03-05T03:45:18.538Z,1.22
2023-03-05T03:45:48.585Z,1.22
2023-03-05T03:46:18.594Z,1.19
2023-03-05T03:46:48.559Z,1.19
2023-03-05T03:47:18.546Z,1.23
2023-03-05T03:47:48.536Z,1.28
2023-03-05T03:48:18.557Z,1.34
2023-03-05T03:48:48.536Z,1.42
2023-03-05T03:49:18.538Z,1.46
2023-03-05T03:49:48.538Z,1.44
2023-03-05T03:50:18.543Z,1.44
2023-03-05T03:50:48.538Z,1.43
2023-03-05T03:51:18.552Z,1.41
2023-03-05T03:51:48.551Z,1.41
2023-03-05T03:52:18.540Z,1.42
2023-03-05T03:52:48.539Z,1.47
2023-03-05T03:53:18.543Z,1.47
2023-03-05T03:53:48.549Z,1.45
2023-03-05T03:54:18.553Z,1.42
2023-03-05T03:54:48.537Z,1.45
2023-03-05T03:55:18.541Z,1.47
2023-03-05T03:55:48.541Z,1.5
2023-03-05T03:56:18.539Z,1.52
2023-03-05T03:56:48.537Z,1.57
2023-03-05T03:57:18.541Z,1.55
2023-03-05T03:57:48.572Z,1.49
2023-03-05T03:58:18.548Z,1.49
2023-03-05T03:58:48.548Z,1.49
2023-03-05T03:59:18.540Z,1.46
2023-03-05T03:59:48.541Z,1.38
2023-03-05T04:00:18.548Z,1.37
2023-03-05T04:00:48.544Z,1.36
2023-03-05T04:01:18.560Z,1.36
2023-03-05T04:01:48.537Z,1.38
2023-03-05T04:02:18.631Z,1.35
2023-03-05T04:02:48.620Z,1.38
2023-03-05T04:03:18.544Z,1.45
2023-03-05T04:03:48.539Z,1.51
2023-03-05T04:04:18.646Z,1.53
2023-03-05T04:04:48.543Z,1.53
2023-03-05T04:05:18.542Z,1.5
2023-03-05T04:05:48.542Z,1.52
2023-03-05T04:06:18.538Z,1.54
2023-03-05T04:06:48.538Z,1.52
2023-03-05T04:07:18.545Z,1.54
2023-03-05T04:07:48.539Z,1.48
2023-03-05T04:08:18.545Z,1.45
2023-03-05T04:08:48.544Z,1.43
2023-03-05T04:09:18.541Z,1.38
2023-03-05T04:09:48.553Z,1.34
2023-03-05T04:10:18.545Z,1.32
2023-03-05T04:10:48.538Z,1.33
2023-03-05T04:11:18.540Z,1.34
2023-03-05T04:11:48.545Z,1.4
2023-03-05T04:12:18.541Z,1.48
2023-03-05T04:12:48.554Z,1.52
2023-03-05T04:13:18.542Z,1.56
2023-03-05T04:13:48.547Z,1.61
2023-03-05T04:14:18.540Z,1.67
2023-03-05T04:14:48.554Z,1.68
2023-03-05T04:15:18.546Z,1.65
2023-03-05T04:15:48.621Z,1.63
2023-03-05T04:16:18.620Z,1.64
2023-03-05T04:16:48.556Z,1.61
2023-03-05T04:17:18.545Z,1.59
2023-03-05T04:17:48.541Z,1.61
2023-03-05T04:18:18.559Z,1.6
2023-03-05T04:18:48.539Z,1.63
2023-03-05T04:19:18.540Z,1.68
2023-03-05T04:19:48.562Z,1.71
2023-03-05T04:20:18.542Z,1.72
2023-03-05T04:20:48.562Z,1.72
2023-03-05T04:21:18.544Z,1.72
2023-03-05T04:21:48.546Z,1.68
2023-03-05T04:22:18.556Z,1.69
2023-03-05T04:22:48.553Z,1.7
2023-03-05T04:23:18.543Z,1.73
2023-03-05T04:23:48.542Z,1.73
2023-03-05T04:24:18.547Z,1.72
2023-03-05T04:24:48.543Z,1.68
2023-03-05T04:25:18.559Z,1.64
2023-03-05T04:25:48.540Z,1.62
2023-03-05T04:26:18.545Z,1.61
2023-03-05T04:26:48.546Z,1.62
2023-03-05T04:27:18.543Z,1.67
2023-03-05T04:27:48.551Z,1.73
2023-03-05T04:28:18.542Z,1.74
2023-03-05T04:28:48.544Z,1.76
2023-03-05T04:29:18.544Z,1.79
2023-03-05T04:29:48.559Z,1.83
2023-03-05T04:30:18.543Z,1.81
2023-03-05T04:30:48.602Z,1.78
2023-03-05T04:31:18.559Z,1.8
2023-03-05T04:31:48.544Z,1.82
2023-03-05T04:32:18.572Z,1.83
2023-03-05T04:32:48.540Z,1.83
2023-03-05T04:33:18.544Z,1.76
2023-03-05T04:33:48.536Z,1.74
2023-03-05T04:34:18.538Z,1.75
2023-03-05T04:34:48.540Z,1.65
2023-03-05T04:35:18.612Z,1.58
2023-03-05T04:35:48.723Z,1.52
2023-03-05T04:36:18.539Z,1.48
2023-03-05T04:36:48.536Z,1.48
2023-03-05T04:37:18.538Z,1.49
2023-03-05T04:37:48.546Z,1.6
2023-03-05T04:38:18.545Z,1.63
2023-03-05T04:38:48.535Z,1.68
2023-03-05T04:39:18.540Z,1.71
2023-03-05T04:39:48.539Z,1.75
2023-03-05T04:40:18.537Z,1.79
2023-03-05T04:40:48.537Z,1.81
2023-03-05T04:41:18.534Z,1.83
2023-03-05T04:41:48.542Z,1.84
2023-03-05T04:42:18.544Z,1.83
2023-03-05T04:42:48.542Z,1.84
2023-03-05T04:43:18.543Z,1.87
2023-03-05T04:43:48.536Z,1.89
2023-03-05T04:44:18.542Z,1.88
2023-03-05T04:44:48.556Z,1.9
2023-03-05T04:45:18.534Z,1.9
2023-03-05T04:45:48.535Z,1.89
2023-03-05T04:46:18.543Z,1.9
2023-03-05T04:46:48.642Z,1.93
2023-03-05T04:47:18.535Z,1.92
2023-03-05T04:47:48.535Z,1.89
2023-03-05T04:48:18.536Z,1.84
2023-03-05T04:48:48.538Z,1.86
2023-03-05T04:49:18.546Z,1.87
2023-03-05T04:49:48.540Z,1.87
2023-03-05T04:50:18.547Z,1.91
2023-03-05T04:50:48.537Z,1.91
2023-03-05T04:51:18.541Z,1.89
2023-03-05T04:51:48.574Z,1.87
2023-03-05T04:52:18.566Z,1.89
2023-03-05T04:52:48.536Z,1.9
2023-03-05T04:53:18.541Z,1.92
2023-03-05T04:53:48.545Z,1.95
2023-03-05T04:54:18.538Z,1.95
2023-03-05T04:54:48.535Z,1.93
2023-03-05T04:55:18.536Z,1.94
2023-03-05T04:55:48.536Z,1.96
2023-03-05T04:56:18.580Z,1.91
2023-03-05T04:56:48.536Z,1.88
2023-03-05T04:57:18.550Z,1.85
2023-03-05T04:57:48.538Z,1.85
2023-03-05T04:58:18.535Z,1.85
2023-03-05T04:58:48.542Z,1.85
2023-03-05T04:59:18.537Z,1.89
2023-03-05T04:59:48.534Z,1.88
2023-03-05T05:00:18.535Z,1.93
2023-03-05T05:00:48.544Z,1.98
2023-03-05T05:01:18.550Z,1.97
2023-03-05T05:01:48.589Z,1.95
2023-03-05T05:02:18.539Z,1.93
2023-03-05T05:02:48.577Z,1.97
2023-03-05T05:03:18.654Z,1.99
2023-03-05T05:03:48.537Z,2.04
2023-03-05T05:04:18.537Z,2.06
2023-03-05T05:04:48.534Z,2.04
2023-03-05T05:05:18.566Z,2.06
2023-03-05T05:05:48.540Z,2.06
2023-03-05T05:06:18.542Z,2.07
2023-03-05T05:06:48.540Z,2.04
2023-03-05T05:07:18.537Z,2.05
2023-03-05T05:07:48.558Z,2.08
2023-03-05T05:08:18.544Z,2.12
2023-03-05T05:08:48.536Z,2.09
2023-03-05T05:09:18.538Z,2.1
2023-03-05T05:09:48.538Z,2.08
2023-03-05T05:10:18.542Z,2.07
2023-03-05T05:10:48.558Z,2.07
2023-03-05T05:11:18.577Z,2.07
2023-03-05T05:11:48.544Z,2.08
2023-03-05T05:12:18.537Z,2.07
2023-03-05T05:12:48.539Z,2.08
2023-03-05T05:13:18.546Z,2.07
2023-03-05T05:13:48.545Z,2.11
2023-03-05T05:14:18.548Z,2.13
2023-03-05T05:14:48.536Z,2.16
2023-03-05T05:15:18.546Z,2.21
2023-03-05T05:15:48.611Z,2.21
2023-03-05T05:16:18.574Z,2.17
2023-03-05T05:16:48.541Z,2.2
2023-03-05T05:17:18.536Z,2.25
2023-03-05T05:17:48.541Z,2.28
2023-03-05T05:18:18.582Z,2.25
2023-03-05T05:18:48.537Z,2.19
2023-03-05T05:19:18.621Z,2.12
2023-03-05T05:19:48.540Z,2.08
2023-03-05T05:20:18.536Z,2.1
2023-03-05T05:20:48.540Z,2.09
2023-03-05T05:21:18.549Z,2.05
2023-03-05T05:21:48.538Z,2.07
2023-03-05T05:22:18.537Z,2.13
2023-03-05T05:22:48.573Z,2.2
2023-03-05T05:23:18.536Z,2.19
2023-03-05T05:23:48.548Z,2.14
2023-03-05T05:24:18.538Z,2.11
2023-03-05T05:24:48.545Z,2.11
2023-03-05T05:25:18.542Z,2.15
2023-03-05T05:25:48.544Z,2.19
2023-03-05T05:26:18.548Z,2.19
2023-03-05T05:26:48.540Z,2.19
2023-03-05T05:27:18.540Z,2.25
2023-03-05T05:27:48.546Z,2.28
2023-03-05T05:28:18.542Z,2.33
2023-03-05T05:28:48.552Z,2.35
2023-03-05T05:29:18.543Z,2.37
2023-03-05T05:29:48.537Z,2.33
2023-03-05T05:30:18.537Z,2.35
2023-03-05T05:30:48.541Z,2.35
2023-03-05T05:31:18.655Z,2.32
2023-03-05T05:31:48.589Z,2.28
2023-03-05T05:32:18.577Z,2.26
2023-03-05T05:32:48.540Z,2.26
2023-03-05T05:33:18.542Z,2.26
2023-03-05T05:33:49.930Z,2.26
2023-03-05T05:34:18.542Z,2.27
2023-03-05T05:34:48.547Z,2.26
2023-03-05T05:35:18.625Z,2.25
2023-03-05T05:35:48.618Z,2.24
2023-03-05T05:36:18.547Z,2.26
2023-03-05T05:36:48.542Z,2.28
2023-03-05T05:37:18.543Z,2.36
2023-03-05T05:37:48.539Z,2.42
2023-03-05T05:38:18.578Z,2.41
2023-03-05T05:38:48.547Z,2.39
2023-03-05T05:39:20.419Z,2.37
2023-03-05T05:39:48.544Z,2.34
2023-03-05T05:40:18.550Z,2.3
2023-03-05T05:40:48.545Z,2.33
2023-03-05T05:41:18.552Z,2.33
2023-03-05T05:41:48.553Z,2.37
2023-03-05T05:42:18.549Z,2.38
2023-03-05T05:42:48.556Z,2.38
2023-03-05T05:43:18.544Z,2.36
2023-03-05T05:43:48.566Z,2.39
2023-03-05T05:44:18.547Z,2.41
2023-03-05T05:44:48.546Z,2.35
2023-03-05T05:45:18.585Z,2.38
2023-03-05T05:45:48.619Z,2.4
2023-03-05T05:46:18.665Z,2.41
2023-03-05T05:46:48.586Z,2.44
2023-03-05T05:47:18.551Z,2.49
2023-03-05T05:47:48.551Z,2.53
2023-03-05T05:48:18.560Z,2.5
2023-03-05T05:48:48.554Z,2.47
2023-03-05T05:49:18.551Z,2.48
2023-03-05T05:49:48.554Z,2.48
2023-03-05T05:50:18.554Z,2.46
2023-03-05T05:50:48.555Z,2.42
2023-03-05T05:51:18.547Z,2.4
2023-03-05T05:51:48.550Z,2.4
2023-03-05T05:52:18.552Z,2.4
2023-03-05T05:52:48.549Z,2.38
2023-03-05T05:53:18.561Z,2.33
2023-03-05T05:53:48.552Z,2.34
2023-03-05T05:54:18.554Z,2.38
2023-03-05T05:54:48.555Z,2.36
2023-03-05T05:55:18.586Z,2.39
2023-03-05T05:55:48.550Z,2.46
2023-03-05T05:56:18.559Z,2.5
2023-03-05T05:56:48.548Z,2.54
2023-03-05T05:57:18.556Z,2.56
2023-03-05T05:57:48.563Z,2.58
2023-03-05T05:58:18.549Z,2.57
2023-03-05T05:58:48.566Z,2.57
2023-03-05T05:59:18.558Z,2.52
2023-03-05T05:59:48.573Z,2.49
2023-03-05T06:00:18.547Z,2.5
2023-03-05T06:00:48.559Z,2.42
2023-03-05T06:01:18.550Z,2.38
2023-03-05T06:01:48.614Z,2.35
2023-03-05T06:02:18.588Z,2.34
2023-03-05T06:02:48.616Z,2.35
2023-03-05T06:03:18.623Z,2.37
2023-03-05T06:03:48.548Z,2.33
2023-03-05T06:04:18.547Z,2.26
2023-03-05T06:04:48.560Z,2.21
2023-03-05T06:05:18.550Z,2.16
2023-03-05T06:05:48.546Z,2.13
2023-03-05T06:06:18.557Z,2.07
2023-03-05T06:06:48.565Z,2.08
2023-03-05T06:07:18.547Z,2.1
2023-03-05T06:07:48.558Z,2.13
2023-03-05T06:08:18.551Z,2.15
2023-03-05T06:08:48.550Z,2.1
2023-03-05T06:09:18.558Z,2.1
2023-03-05T06:09:48.552Z,2.09
2023-03-05T06:10:18.548Z,2.09
2023-03-05T06:10:48.547Z,2.1
2023-03-05T06:11:19.534Z,2.16
2023-03-05T06:11:48.562Z,2.16
2023-03-05T06:12:18.562Z,2.15
2023-03-05T06:12:48.562Z,2.17
2023-03-05T06:13:18.548Z,2.16
2023-03-05T06:13:48.555Z,2.16
2023-03-05T06:14:18.551Z,2.18
2023-03-05T06:14:48.555Z,2.24
2023-03-05T06:15:18.551Z,2.27
2023-03-05T06:15:48.547Z,2.2
2023-03-05T06:16:18.556Z,2.15
2023-03-05T06:16:48.667Z,2.1
2023-03-05T06:17:28.583Z,2.08
2023-03-05T06:17:49.505Z,2.08
2023-03-05T06:18:18.553Z,2.08
2023-03-05T06:18:48.560Z,2.07
2023-03-05T06:19:18.559Z,2.11
2023-03-05T06:19:48.707Z,2.13
2023-03-05T06:20:18.552Z,2.13
2023-03-05T06:20:48.550Z,2.13
2023-03-05T06:21:18.575Z,2.16
2023-03-05T06:21:48.557Z,2.19
2023-03-05T06:22:18.548Z,2.23
2023-03-05T06:22:48.558Z,2.29
2023-03-05T06:23:18.550Z,2.29
2023-03-05T06:23:48.562Z,2.34
2023-03-05T06:24:18.548Z,2.31
2023-03-05T06:24:48.552Z,2.25
2023-03-05T06:25:18.553Z,2.22
2023-03-05T06:25:48.554Z,2.21
2023-03-05T06:26:18.561Z,2.22
2023-03-05T06:26:48.602Z,2.24
2023-03-05T06:27:18.555Z,2.24
2023-03-05T06:27:48.558Z,2.25
2023-03-05T06:28:18.553Z,2.26
2023-03-05T06:28:48.557Z,2.28
2023-03-05T06:29:18.552Z,2.29
2023-03-05T06:29:48.553Z,2.3
2023-03-05T06:30:18.554Z,2.35
2023-03-05T06:30:48.570Z,2.37
2023-03-05T06:31:18.554Z,2.43
2023-03-05T06:31:48.549Z,2.42
2023-03-05T06:32:18.611Z,2.44
2023-03-05T06:32:48.561Z,2.44
2023-03-05T06:33:18.553Z,2.46
2023-03-05T06:33:48.548Z,2.51
2023-03-05T06:34:18.550Z,2.47
2023-03-05T06:34:48.548Z,2.5
2023-03-05T06:35:18.597Z,2.52
2023-03-05T06:35:48.589Z,2.55
2023-03-05T06:36:18.563Z,2.56
2023-03-05T06:36:48.547Z,2.64
2023-03-05T06:37:18.552Z,2.77
2023-03-05T06:37:48.557Z,2.86
2023-03-05T06:38:18.552Z,2.92
2023-03-05T06:38:49.094Z,2.99
2023-03-05T06:39:18.555Z,3.04
2023-03-05T06:39:48.554Z,2.99
2023-03-05T06:40:18.554Z,2.93
2023-03-05T06:40:48.554Z,2.86